createdAt,value
2023-09-29T00:00:02.551Z,19.4
2023-09-29T00:01:01.438Z,19.4
2023-09-29T00:02:01.788Z,19.4
2023-09-29T00:03:01.461Z,19.4
2023-09-29T00:04:01.541Z,19.2
2023-09-29T00:05:01.496Z,19.1
2023-09-29T00:06:01.451Z,19.3
2023-09-29T00:07:01.347Z,19.4
2023-09-29T00:08:01.711Z,19.1
2023-09-29T00:09:01.362Z,19.6
2023-09-29T00:10:01.354Z,19.5
2023-09-29T00:11:02.271Z,19.4
2023-09-29T00:12:02.164Z,19.6
2023-09-29T00:13:02.307Z,19.4
2023-09-29T00:14:02.100Z,19.6
2023-09-29T00:15:02.186Z,19.6
2023-09-29T00:16:01.805Z,19.7
2023-09-29T00:17:01.786Z,19.7
2023-09-29T00:18:01.625Z,19.9
2023-09-29T00:19:02.008Z,19.7
2023-09-29T00:20:01.767Z,20.1
2023-09-29T00:21:01.985Z,19.9
2023-09-29T00:22:01.839Z,19.7
2023-09-29T00:23:01.749Z,19.7
2023-09-29T00:24:01.847Z,19.7
2023-09-29T00:25:01.642Z,19.8
2023-09-29T00:26:01.714Z,20.1
2023-09-29T00:27:01.604Z,20.3
2023-09-29T00:28:01.675Z,20
2023-09-29T00:29:01.469Z,20.1
2023-09-29T00:30:01.533Z,19.9
2023-09-29T00:31:01.336Z,19.9
2023-09-29T00:32:02.332Z,19.7
2023-09-29T00:33:02.457Z,20.1
2023-09-29T00:34:01.591Z,19.8
2023-09-29T00:35:01.285Z,20.1
2023-09-29T00:36:02.381Z,20.3
2023-09-29T00:37:02.275Z,20.3
2023-09-29T00:38:02.453Z,20.2
2023-09-29T00:39:02.461Z,20.2
2023-09-29T00:40:01.313Z,19.9
2023-09-29T00:41:02.434Z,19.9
2023-09-29T00:42:01.425Z,20.1
2023-09-29T00:43:01.521Z,19.9
2023-09-29T00:44:02.498Z,20.2
2023-09-29T00:45:01.377Z,20
2023-09-29T00:46:01.391Z,20.2
2023-09-29T00:47:01.445Z,19.9
2023-09-29T00:48:01.370Z,19.8
2023-09-29T00:49:02.758Z,19.8
2023-09-29T00:50:01.385Z,20.2
2023-09-29T00:51:01.615Z,20.2
2023-09-29T00:52:01.501Z,20.2
2023-09-29T00:53:01.651Z,20.4
2023-09-29T00:54:01.420Z,20.4
2023-09-29T00:55:01.470Z,20.1
2023-09-29T00:56:02.727Z,20.5
2023-09-29T00:57:01.391Z,20.3
2023-09-29T00:58:01.545Z,20.4
2023-09-29T00:59:01.305Z,20.6
2023-09-29T01:00:02.369Z,20.5
2023-09-29T01:01:02.128Z,20.2
2023-09-29T01:02:02.183Z,20.4
2023-09-29T01:03:02.081Z,20
2023-09-29T01:04:02.389Z,20
2023-09-29T01:05:01.535Z,20.1
2023-09-29T01:06:01.739Z,20.1
2023-09-29T01:07:01.497Z,20.1
2023-09-29T01:08:01.614Z,20
2023-09-29T01:09:01.444Z,20
2023-09-29T01:10:01.505Z,20.1
2023-09-29T01:11:01.308Z,20.1
2023-09-29T01:12:02.768Z,20.1
2023-09-29T01:13:01.576Z,20.4
2023-09-29T01:14:01.685Z,20.6
2023-09-29T01:15:01.480Z,20.2
2023-09-29T01:16:02.317Z,20.3
2023-09-29T01:17:02.510Z,20
2023-09-29T01:18:02.358Z,20
2023-09-29T01:19:01.442Z,19.8
2023-09-29T01:20:01.391Z,20.4
2023-09-29T01:21:02.482Z,20.1
2023-09-29T01:22:02.294Z,20.2
2023-09-29T01:23:02.720Z,20.3
2023-09-29T01:24:01.416Z,20.7
2023-09-29T01:25:01.442Z,20.4
2023-09-29T01:26:02.517Z,20.6
2023-09-29T01:27:02.281Z,20.4
2023-09-29T01:28:02.358Z,20.7
2023-09-29T01:29:02.222Z,20.2
2023-09-29T01:30:02.351Z,20
2023-09-29T01:31:01.925Z,20.5
2023-09-29T01:32:02.473Z,20.7
2023-09-29T01:33:02.333Z,20.8
2023-09-29T01:34:01.500Z,20.3
2023-09-29T01:35:01.300Z,20.4
2023-09-29T01:36:02.375Z,20.1
2023-09-29T01:37:02.269Z,20.6
2023-09-29T01:38:02.785Z,20.5
2023-09-29T01:39:01.650Z,20
2023-09-29T01:40:01.797Z,20.4
2023-09-29T01:41:01.537Z,19.8
2023-09-29T01:42:01.658Z,20.3
2023-09-29T01:43:01.528Z,20.4
2023-09-29T01:44:01.419Z,20.6
2023-09-29T01:45:01.321Z,20.6
2023-09-29T01:46:01.386Z,20.3
2023-09-29T01:47:01.536Z,20.6
2023-09-29T01:48:02.891Z,20.6
2023-09-29T01:49:02.351Z,20.3
2023-09-29T01:50:01.802Z,20.3
2023-09-29T01:51:01.593Z,20.6
2023-09-29T01:52:01.942Z,20.4
2023-09-29T01:53:01.565Z,20.4
2023-09-29T01:54:01.629Z,20.6
2023-09-29T01:55:01.433Z,20.2
2023-09-29T01:56:01.545Z,19.9
2023-09-29T01:57:01.401Z,20.2
2023-09-29T01:58:02.443Z,20.3
2023-09-29T01:59:02.345Z,20
2023-09-29T02:00:03.109Z,20.5
2023-09-29T02:01:01.829Z,20.4
2023-09-29T02:02:02.037Z,20.5
2023-09-29T02:03:02.025Z,20
2023-09-29T02:04:01.478Z,19.6
2023-09-29T02:05:01.592Z,19.8
2023-09-29T02:06:01.359Z,19.8
2023-09-29T02:07:02.400Z,20.2
2023-09-29T02:08:01.297Z,20.3
2023-09-29T02:09:02.495Z,20.1
2023-09-29T02:10:01.302Z,19.6
2023-09-29T02:11:02.499Z,19.4
2023-09-29T02:12:02.215Z,19.5
2023-09-29T02:13:02.415Z,19.3
2023-09-29T02:14:02.185Z,19.3
2023-09-29T02:15:02.402Z,19.5
2023-09-29T02:16:01.853Z,19.5
2023-09-29T02:17:02.027Z,19.5
2023-09-29T02:18:01.770Z,19.4
2023-09-29T02:19:01.375Z,19.2
2023-09-29T02:20:01.604Z,18.9
2023-09-29T02:21:01.441Z,18.9
2023-09-29T02:22:01.530Z,18.9
2023-09-29T02:23:01.629Z,19
2023-09-29T02:24:01.611Z,18.9
2023-09-29T02:25:01.549Z,19.1
2023-09-29T02:26:01.434Z,19.3
2023-09-29T02:27:01.533Z,19.1
2023-09-29T02:28:01.834Z,19.5
2023-09-29T02:29:01.784Z,19.4
2023-09-29T02:30:01.770Z,19.7
2023-09-29T02:31:01.504Z,19.1
2023-09-29T02:32:01.688Z,19.1
2023-09-29T02:33:01.417Z,18.8
2023-09-29T02:34:01.502Z,18.6
2023-09-29T02:35:01.284Z,18.6
2023-09-29T02:36:02.482Z,18.9
2023-09-29T02:37:01.290Z,18.8
2023-09-29T02:38:02.345Z,19.4
2023-09-29T02:39:02.550Z,19.8
2023-09-29T02:40:01.297Z,19.7
2023-09-29T02:41:02.378Z,19.4
2023-09-29T02:42:02.231Z,19.7
2023-09-29T02:43:02.331Z,19.8
2023-09-29T02:44:02.091Z,19.9
2023-09-29T02:45:02.271Z,19.9
2023-09-29T02:46:01.823Z,20.1
2023-09-29T02:47:01.914Z,20.2
2023-09-29T02:48:01.737Z,20.2
2023-09-29T02:49:01.735Z,20.2
2023-09-29T02:50:01.667Z,20.1
2023-09-29T02:51:01.769Z,19.8
2023-09-29T02:52:01.582Z,19.6
2023-09-29T02:53:01.661Z,19.4
2023-09-29T02:54:01.515Z,19.6
2023-09-29T02:55:01.473Z,19.4
2023-09-29T02:56:01.352Z,19
2023-09-29T02:57:01.794Z,19
2023-09-29T02:58:01.741Z,18.7
2023-09-29T02:59:01.802Z,18.7
2023-09-29T03:00:02.498Z,18.8
2023-09-29T03:01:01.843Z,18.7
2023-09-29T03:02:02.376Z,18.6
2023-09-29T03:03:01.618Z,18.4
2023-09-29T03:04:02.093Z,18.7
2023-09-29T03:05:01.369Z,18.6
2023-09-29T03:06:01.307Z,18.5
2023-09-29T03:07:02.462Z,18.7
2023-09-29T03:08:02.295Z,18.4
2023-09-29T03:09:02.407Z,18.4
2023-09-29T03:10:02.237Z,18.2
2023-09-29T03:11:02.281Z,18.1
2023-09-29T03:12:02.205Z,18.1
2023-09-29T03:13:02.284Z,18.1
2023-09-29T03:14:02.317Z,18.2
2023-09-29T03:15:02.669Z,18.5
2023-09-29T03:16:01.785Z,18.6
2023-09-29T03:17:02.129Z,18.4
2023-09-29T03:18:02.025Z,18.4
2023-09-29T03:19:02.115Z,18.4
2023-09-29T03:20:02.543Z,18.6
2023-09-29T03:21:02.295Z,18.8
2023-09-29T03:22:02.465Z,18.8
2023-09-29T03:23:02.387Z,18.6
2023-09-29T03:24:02.331Z,18.6
2023-09-29T03:25:02.155Z,18.2
2023-09-29T03:26:02.216Z,18.2
2023-09-29T03:27:02.096Z,18.3
2023-09-29T03:28:02.309Z,18.8
2023-09-29T03:29:02.002Z,18.6
2023-09-29T03:30:02.134Z,19
2023-09-29T03:31:02.132Z,19
2023-09-29T03:32:02.329Z,18.8
2023-09-29T03:33:02.221Z,18.7
2023-09-29T03:34:02.280Z,18.9
2023-09-29T03:35:02.185Z,18.7
2023-09-29T03:36:02.173Z,19
2023-09-29T03:37:02.135Z,19.2
2023-09-29T03:38:02.233Z,18.9
2023-09-29T03:39:02.159Z,19.2
2023-09-29T03:40:02.226Z,18.9
2023-09-29T03:41:02.098Z,19.2
2023-09-29T03:42:02.373Z,18.9
2023-09-29T03:43:02.177Z,18.7
2023-09-29T03:44:02.355Z,18.8
2023-09-29T03:45:02.205Z,18.6
2023-09-29T03:46:02.157Z,18.8
2023-09-29T03:47:02.270Z,18.9
2023-09-29T03:48:02.155Z,19.3
2023-09-29T03:49:02.297Z,19.1
2023-09-29T03:50:02.243Z,18.8
2023-09-29T03:51:02.208Z,18.9
2023-09-29T03:52:02.101Z,18.5
2023-09-29T03:53:02.191Z,18.2
2023-09-29T03:54:02.091Z,18.4
2023-09-29T03:55:02.128Z,18.1
2023-09-29T03:56:01.992Z,18.5
2023-09-29T03:57:01.967Z,18
2023-09-29T03:58:02.013Z,18.5
2023-09-29T03:59:01.880Z,18.5
2023-09-29T04:00:01.867Z,19.1
2023-09-29T04:01:01.984Z,19.3
2023-09-29T04:02:02.021Z,19.5
2023-09-29T04:03:01.945Z,19.4
2023-09-29T04:04:01.458Z,19.1
2023-09-29T04:05:01.962Z,19.5
2023-09-29T04:06:01.863Z,19.8
2023-09-29T04:07:02.031Z,19.6
2023-09-29T04:08:01.952Z,19.8
2023-09-29T04:09:01.939Z,19.5
2023-09-29T04:10:01.388Z,19.1
2023-09-29T04:11:01.413Z,19.4
2023-09-29T04:12:02.383Z,19.7
2023-09-29T04:13:02.232Z,19.6
2023-09-29T04:14:02.655Z,19.7
2023-09-29T04:15:01.367Z,19.7
2023-09-29T04:16:01.860Z,19.7
2023-09-29T04:17:01.963Z,18.9
2023-09-29T04:18:01.960Z,18.6
2023-09-29T04:19:01.928Z,18.9
2023-09-29T04:20:02.059Z,18.7
2023-09-29T04:21:01.927Z,18.6
2023-09-29T04:22:01.970Z,18.3
2023-09-29T04:23:02.206Z,18.5
2023-09-29T04:24:01.947Z,18.2
2023-09-29T04:25:02.159Z,18.2
2023-09-29T04:26:01.845Z,17.8
2023-09-29T04:27:01.943Z,18
2023-09-29T04:28:01.863Z,17.9
2023-09-29T04:29:04.253Z,17.9
2023-09-29T04:30:01.563Z,18
2023-09-29T04:31:01.515Z,18.1
2023-09-29T04:32:01.481Z,17.8
2023-09-29T04:33:01.458Z,17.9
2023-09-29T04:34:01.517Z,18.1
2023-09-29T04:35:01.528Z,18.3
2023-09-29T04:36:01.443Z,18.2
2023-09-29T04:37:01.275Z,17.9
2023-09-29T04:38:01.884Z,17.8
2023-09-29T04:39:02.341Z,18
2023-09-29T04:40:02.372Z,18.2
2023-09-29T04:41:02.266Z,18.7
2023-09-29T04:42:02.305Z,18.2
2023-09-29T04:43:02.392Z,18.4
2023-09-29T04:44:02.170Z,18.9
2023-09-29T04:45:02.442Z,18.9
2023-09-29T04:46:01.823Z,18.9
2023-09-29T04:47:01.834Z,19.5
2023-09-29T04:48:01.791Z,19.8
2023-09-29T04:49:02.089Z,20.2
2023-09-29T04:50:02.146Z,20.1
2023-09-29T04:51:02.281Z,20.2
2023-09-29T04:52:02.251Z,20.3
2023-09-29T04:53:02.271Z,19.3
2023-09-29T04:54:02.273Z,19.3
2023-09-29T04:55:02.315Z,19.8
2023-09-29T04:56:02.231Z,19.9
2023-09-29T04:57:02.282Z,19.5
2023-09-29T04:58:02.119Z,19.8
2023-09-29T04:59:02.301Z,19.6
2023-09-29T05:00:02.190Z,19.9
2023-09-29T05:01:01.613Z,19.9
2023-09-29T05:02:01.656Z,20.1
2023-09-29T05:03:01.527Z,19.9
2023-09-29T05:04:01.937Z,19.9
2023-09-29T05:05:02.447Z,19.8
2023-09-29T05:06:02.232Z,20
2023-09-29T05:07:02.401Z,20
2023-09-29T05:08:02.173Z,20.2
2023-09-29T05:09:02.326Z,20.1
2023-09-29T05:10:02.195Z,20.1
2023-09-29T05:11:02.414Z,20.2
2023-09-29T05:12:02.186Z,20.2
2023-09-29T05:13:02.237Z,20.3
2023-09-29T05:14:02.079Z,20
2023-09-29T05:15:02.342Z,20.2
2023-09-29T05:16:01.937Z,19.8
2023-09-29T05:17:02.264Z,20.1
2023-09-29T05:18:02.001Z,20
2023-09-29T05:19:02.516Z,20.3
2023-09-29T05:20:01.537Z,20.2
2023-09-29T05:21:01.656Z,20.4
2023-09-29T05:22:02.368Z,20.2
2023-09-29T05:23:02.134Z,20.3
2023-09-29T05:24:02.232Z,20.4
2023-09-29T05:25:02.295Z,20.5
2023-09-29T05:26:02.345Z,20.5
2023-09-29T05:27:02.203Z,20.2
2023-09-29T05:28:02.199Z,20.2
2023-09-29T05:29:02.123Z,20.6
2023-09-29T05:30:02.453Z,20.4
2023-09-29T05:31:02.100Z,19.7
2023-09-29T05:32:02.147Z,19.7
2023-09-29T05:33:02.128Z,19.5
2023-09-29T05:34:02.338Z,19.9
2023-09-29T05:35:02.137Z,19.9
2023-09-29T05:36:02.344Z,19.5
2023-09-29T05:37:01.541Z,19
2023-09-29T05:38:01.599Z,18.5
2023-09-29T05:39:01.506Z,18.6
2023-09-29T05:40:01.650Z,18.5
2023-09-29T05:41:01.537Z,19
2023-09-29T05:42:01.569Z,18.9
2023-09-29T05:43:01.713Z,19.1
2023-09-29T05:44:01.678Z,18.7
2023-09-29T05:45:01.831Z,18.6
2023-09-29T05:46:01.747Z,18.7
2023-09-29T05:47:02.253Z,18.5
2023-09-29T05:48:02.328Z,18.7
2023-09-29T05:49:01.369Z,18.3
2023-09-29T05:50:15.394Z,18.4
2023-09-29T05:51:01.552Z,18.6
2023-09-29T05:52:01.872Z,19.1
2023-09-29T05:53:10.188Z,19.3
2023-09-29T05:54:02.084Z,19.7
2023-09-29T05:55:02.153Z,20
2023-09-29T05:56:01.957Z,20.1
2023-09-29T05:57:02.201Z,20.4
2023-09-29T05:58:02.084Z,20.3
2023-09-29T05:59:02.280Z,20.6
2023-09-29T06:00:02.093Z,20.6
2023-09-29T06:01:01.761Z,20.7
2023-09-29T06:02:16.673Z,20.4
2023-09-29T06:03:01.752Z,20.6
2023-09-29T06:04:02.614Z,20.2
2023-09-29T06:05:02.047Z,20.4
2023-09-29T06:06:02.295Z,20.7
2023-09-29T06:07:02.077Z,20.3
2023-09-29T06:08:02.032Z,19.7
2023-09-29T06:09:02.144Z,19.8
2023-09-29T06:10:02.364Z,19.4
2023-09-29T06:11:02.175Z,19.5
2023-09-29T06:12:02.288Z,19.2
2023-09-29T06:13:04.916Z,19
2023-09-29T06:14:01.576Z,19.3
2023-09-29T06:15:01.713Z,19.4
2023-09-29T06:16:01.600Z,19.3
2023-09-29T06:17:01.650Z,19.2
2023-09-29T06:18:02.114Z,19.5
2023-09-29T06:19:02.344Z,19.4
2023-09-29T06:20:02.227Z,19.6
2023-09-29T06:21:02.296Z,19.8
2023-09-29T06:22:02.155Z,19.5
2023-09-29T06:23:02.207Z,19.7
2023-09-29T06:24:02.084Z,19.5
2023-09-29T06:25:02.290Z,20
2023-09-29T06:26:02.015Z,20
2023-09-29T06:27:02.441Z,19.6
2023-09-29T06:28:01.491Z,19.6
2023-09-29T06:29:01.360Z,19.8
2023-09-29T06:30:01.593Z,19.9
2023-09-29T06:31:01.398Z,19.9
2023-09-29T06:32:01.625Z,19.7
2023-09-29T06:33:01.749Z,19.7
2023-09-29T06:34:01.723Z,19.7
2023-09-29T06:35:01.833Z,19.3
2023-09-29T06:36:02.110Z,19.4
2023-09-29T06:37:02.260Z,19.6
2023-09-29T06:38:02.084Z,19.4
2023-09-29T06:39:02.154Z,19.6
2023-09-29T06:40:01.961Z,19.7
2023-09-29T06:41:01.938Z,19.8
2023-09-29T06:42:02.343Z,19.8
2023-09-29T06:43:02.134Z,19.9
2023-09-29T06:44:02.255Z,20
2023-09-29T06:45:02.225Z,20
2023-09-29T06:46:02.601Z,19.9
2023-09-29T06:47:02.122Z,20
2023-09-29T06:48:02.253Z,19.7
2023-09-29T06:49:02.039Z,19.8
2023-09-29T06:50:02.105Z,19.8
2023-09-29T06:51:02.355Z,19.9
2023-09-29T06:52:02.313Z,19.9
2023-09-29T06:53:02.387Z,19.9
2023-09-29T06:54:02.229Z,20
2023-09-29T06:55:02.290Z,20.1
2023-09-29T06:56:02.140Z,20
2023-09-29T06:57:02.246Z,20
2023-09-29T06:58:02.498Z,19.9
2023-09-29T06:59:01.624Z,20.2
2023-09-29T07:00:02.320Z,20
2023-09-29T07:01:02.818Z,20.2
2023-09-29T07:02:02.160Z,20.2
2023-09-29T07:03:02.225Z,20.3
2023-09-29T07:04:03.273Z,20.6
2023-09-29T07:05:03.849Z,20.7
2023-09-29T07:06:02.657Z,20.8
2023-09-29T07:07:01.737Z,20.6
2023-09-29T07:08:01.789Z,20.8
2023-09-29T07:09:01.650Z,20.9
2023-09-29T07:10:01.672Z,20.9
2023-09-29T07:11:01.522Z,20.8
2023-09-29T07:12:01.600Z,21
2023-09-29T07:13:01.438Z,21.2
2023-09-29T07:14:01.565Z,21
2023-09-29T07:15:01.340Z,20.9
2023-09-29T07:16:02.326Z,21
2023-09-29T07:17:02.277Z,21
2023-09-29T07:18:02.252Z,20.9
2023-09-29T07:19:02.225Z,21.3
2023-09-29T07:20:02.627Z,21.4
2023-09-29T07:21:01.397Z,21.3
2023-09-29T07:22:01.532Z,21.3
2023-09-29T07:23:01.467Z,21.5
2023-09-29T07:24:01.468Z,21.5
2023-09-29T07:25:02.458Z,21.5
2023-09-29T07:26:02.237Z,21.3
2023-09-29T07:27:02.493Z,21.6
2023-09-29T07:28:02.375Z,21.6
2023-09-29T07:29:02.518Z,21.7
2023-09-29T07:30:01.479Z,21.7
2023-09-29T07:31:01.542Z,21.5
2023-09-29T07:32:01.505Z,21.5
2023-09-29T07:33:01.610Z,21.9
2023-09-29T07:34:01.611Z,21.8
2023-09-29T07:35:01.547Z,21.8
2023-09-29T07:36:01.392Z,21.9
2023-09-29T07:37:01.408Z,22.2
2023-09-29T07:38:02.481Z,22.1
2023-09-29T07:39:02.396Z,22.3
2023-09-29T07:40:02.358Z,22.5
2023-09-29T07:41:02.156Z,22.4
2023-09-29T07:42:02.344Z,22.4
2023-09-29T07:43:02.068Z,22.4
2023-09-29T07:44:02.312Z,22.6
2023-09-29T07:45:02.189Z,22.8
2023-09-29T07:46:02.377Z,23
2023-09-29T07:47:02.043Z,22.4
2023-09-29T07:48:02.170Z,22.6
2023-09-29T07:49:02.423Z,22.7
2023-09-29T07:50:01.323Z,22.8
2023-09-29T07:51:01.450Z,22.8
2023-09-29T07:52:02.336Z,22.9
2023-09-29T07:53:02.175Z,23
2023-09-29T07:54:02.258Z,23
2023-09-29T07:55:01.239Z,22.9
2023-09-29T07:56:02.428Z,23.1
2023-09-29T07:57:02.232Z,23.3
2023-09-29T07:58:02.360Z,23.2
2023-09-29T07:59:02.204Z,23.7
2023-09-29T08:00:02.645Z,23.1
2023-09-29T08:01:01.452Z,23.3
2023-09-29T08:02:02.147Z,23.4
2023-09-29T08:03:02.380Z,23.2
2023-09-29T08:04:01.546Z,23.5
2023-09-29T08:05:02.100Z,23.7
2023-09-29T08:06:01.806Z,23.8
2023-09-29T08:07:03.956Z,23.6
2023-09-29T08:08:01.824Z,24
2023-09-29T08:09:02.103Z,24.2
2023-09-29T08:10:01.944Z,24
2023-09-29T08:11:02.046Z,23.9
2023-09-29T08:12:02.066Z,23.8
2023-09-29T08:13:01.997Z,23.9
2023-09-29T08:14:01.963Z,24.1
2023-09-29T08:15:02.049Z,24.3
2023-09-29T08:16:01.880Z,24.1
2023-09-29T08:17:01.889Z,24.2
2023-09-29T08:18:02.081Z,24.3
2023-09-29T08:19:02.656Z,24.7
2023-09-29T08:20:01.289Z,24.3
2023-09-29T08:21:02.506Z,24.2
2023-09-29T08:22:01.394Z,24.2
2023-09-29T08:23:01.442Z,24
2023-09-29T08:24:01.426Z,23.6
2023-09-29T08:25:02.415Z,23.7
2023-09-29T08:26:02.283Z,24.2
2023-09-29T08:27:02.272Z,24.1
2023-09-29T08:28:02.246Z,24.6
2023-09-29T08:29:02.472Z,24.5
2023-09-29T08:30:02.305Z,24.8
2023-09-29T08:31:02.253Z,24.4
2023-09-29T08:32:01.673Z,24.4
2023-09-29T08:33:14.953Z,23.9
2023-09-29T08:34:01.331Z,24.3
2023-09-29T08:35:01.434Z,24.3
2023-09-29T08:36:02.504Z,24.6
2023-09-29T08:37:01.388Z,24.1
2023-09-29T08:38:01.400Z,24.3
2023-09-29T08:39:02.344Z,24.1
2023-09-29T08:40:02.296Z,24.4
2023-09-29T08:41:02.288Z,24.3
2023-09-29T08:42:02.276Z,24.4
2023-09-29T08:43:02.306Z,24.5
2023-09-29T08:44:07.561Z,24.6
2023-09-29T08:45:01.765Z,24.4
2023-09-29T08:46:01.866Z,24.6
2023-09-29T08:47:01.818Z,24.6
2023-09-29T08:48:01.834Z,24.8
2023-09-29T08:49:01.814Z,24.2
2023-09-29T08:50:01.712Z,24.6
2023-09-29T08:51:01.818Z,24.8
2023-09-29T08:52:01.651Z,24.7
2023-09-29T08:53:01.703Z,24.8
2023-09-29T08:54:01.587Z,24.5
2023-09-29T08:55:01.560Z,24.9
2023-09-29T08:56:01.492Z,24.8
2023-09-29T08:57:01.629Z,24.5
2023-09-29T08:58:01.407Z,24.5
2023-09-29T08:59:01.426Z,24.8
2023-09-29T09:00:02.605Z,24.7
2023-09-29T09:01:01.407Z,24.9
2023-09-29T09:02:01.359Z,25
2023-09-29T09:03:01.496Z,25
2023-09-29T09:04:01.862Z,25.1
2023-09-29T09:05:01.570Z,24.9
2023-09-29T09:06:01.659Z,25.6
2023-09-29T09:07:01.481Z,25.7
2023-09-29T09:08:01.435Z,25.7
2023-09-29T09:09:01.495Z,25.6
2023-09-29T09:10:01.444Z,25.6
2023-09-29T09:11:02.354Z,25.7
2023-09-29T09:12:02.260Z,26.1
2023-09-29T09:13:02.305Z,26.2
2023-09-29T09:14:02.576Z,26.3
2023-09-29T09:15:01.747Z,26.2
2023-09-29T09:16:01.775Z,25.9
2023-09-29T09:17:01.315Z,26
2023-09-29T09:18:02.563Z,26
2023-09-29T09:19:01.581Z,25.7
2023-09-29T09:20:01.612Z,25.6
2023-09-29T09:21:01.496Z,26.3
2023-09-29T09:22:01.642Z,26.7
2023-09-29T09:23:01.398Z,26.2
2023-09-29T09:24:01.582Z,26.2
2023-09-29T09:25:01.439Z,26
2023-09-29T09:26:01.601Z,26.3
2023-09-29T09:27:01.409Z,26.1
2023-09-29T09:28:01.667Z,26.3
2023-09-29T09:29:01.741Z,26.1
2023-09-29T09:30:01.595Z,26.1
2023-09-29T09:31:01.845Z,26.2
2023-09-29T09:32:01.303Z,26
2023-09-29T09:33:02.417Z,26.4
2023-09-29T09:34:01.308Z,26.2
2023-09-29T09:35:02.508Z,25.8
2023-09-29T09:36:02.348Z,25.8
2023-09-29T09:37:02.785Z,26.1
2023-09-29T09:38:02.229Z,26.5
2023-09-29T09:39:02.338Z,26.4
2023-09-29T09:40:02.264Z,26.6
2023-09-29T09:41:02.363Z,26.7
2023-09-29T09:42:02.174Z,26.2
2023-09-29T09:43:02.238Z,26.7
2023-09-29T09:44:02.136Z,27.2
2023-09-29T09:45:02.359Z,26.6
2023-09-29T09:46:02.139Z,26.5
2023-09-29T09:47:02.226Z,27
2023-09-29T09:48:02.370Z,26.2
2023-09-29T09:49:02.351Z,27
2023-09-29T09:50:02.411Z,27.2
2023-09-29T09:51:02.238Z,27.6
2023-09-29T09:52:02.266Z,27.1
2023-09-29T09:53:02.181Z,27.3
2023-09-29T09:54:02.448Z,27.6
2023-09-29T09:55:02.246Z,27.8
2023-09-29T09:56:02.339Z,27.5
2023-09-29T09:57:02.236Z,27.6
2023-09-29T09:58:02.430Z,26.7
2023-09-29T09:59:02.186Z,26.9
2023-09-29T10:00:02.438Z,27.1
2023-09-29T10:01:01.364Z,27.2
2023-09-29T10:02:02.137Z,26.8
2023-09-29T10:03:02.394Z,27.4
2023-09-29T10:04:01.491Z,27.7
2023-09-29T10:05:01.551Z,27.7
2023-09-29T10:06:01.462Z,27.7
2023-09-29T10:07:01.803Z,27.9
2023-09-29T10:08:01.476Z,27.8
2023-09-29T10:09:01.562Z,27.8
2023-09-29T10:10:01.412Z,27.8
2023-09-29T10:11:01.600Z,28
2023-09-29T10:12:01.350Z,27.5
2023-09-29T10:13:02.404Z,27
2023-09-29T10:14:02.216Z,27.7
2023-09-29T10:15:02.469Z,27.6
2023-09-29T10:16:01.351Z,28
2023-09-29T10:17:02.248Z,27.4
2023-09-29T10:18:02.458Z,27.5
2023-09-29T10:19:01.474Z,27.4
2023-09-29T10:20:02.371Z,27.5
2023-09-29T10:21:02.341Z,27.7
2023-09-29T10:22:02.360Z,27.7
2023-09-29T10:23:02.276Z,28
2023-09-29T10:24:02.585Z,27.9
2023-09-29T10:25:01.336Z,27.5
2023-09-29T10:26:01.500Z,27.5
2023-09-29T10:27:02.448Z,28.1
2023-09-29T10:28:02.277Z,27.9
2023-09-29T10:29:02.464Z,27.5
2023-09-29T10:30:02.326Z,27
2023-09-29T10:31:02.296Z,27.4
2023-09-29T10:32:02.309Z,27.3
2023-09-29T10:33:02.565Z,27.2
2023-09-29T10:34:01.846Z,27.1
2023-09-29T10:35:01.568Z,27.5
2023-09-29T10:36:01.499Z,27.5
2023-09-29T10:37:01.842Z,27.6
2023-09-29T10:38:01.516Z,27.6
2023-09-29T10:39:01.612Z,27.7
2023-09-29T10:40:01.440Z,27.7
2023-09-29T10:41:06.241Z,27.6
2023-09-29T10:42:02.327Z,27.7
2023-09-29T10:43:02.136Z,28.2
2023-09-29T10:44:02.367Z,27.6
2023-09-29T10:45:02.201Z,27.3
2023-09-29T10:46:02.273Z,27.7
2023-09-29T10:47:03.753Z,27.5
2023-09-29T10:48:01.715Z,27.7
2023-09-29T10:49:02.228Z,27.8
2023-09-29T10:50:01.854Z,27.6
2023-09-29T10:51:01.824Z,27.8
2023-09-29T10:52:01.929Z,28
2023-09-29T10:53:01.861Z,27.7
2023-09-29T10:54:01.751Z,27.7
2023-09-29T10:55:01.975Z,27.8
2023-09-29T10:56:01.681Z,27.4
2023-09-29T10:57:01.769Z,27.9
2023-09-29T10:58:01.600Z,27.8
2023-09-29T10:59:01.720Z,27.7
2023-09-29T11:00:01.883Z,27.6
2023-09-29T11:01:02.265Z,27.7
2023-09-29T11:02:01.375Z,27.9
2023-09-29T11:03:02.432Z,28.2
2023-09-29T11:04:01.632Z,28.4
2023-09-29T11:05:01.887Z,28.6
2023-09-29T11:06:01.665Z,27.1
2023-09-29T11:07:02.409Z,28
2023-09-29T11:08:01.834Z,27.7
2023-09-29T11:09:01.804Z,28
2023-09-29T11:10:01.968Z,27.9
2023-09-29T11:11:01.757Z,27.9
2023-09-29T11:12:01.748Z,28
2023-09-29T11:13:01.947Z,27.8
2023-09-29T11:14:01.644Z,28
2023-09-29T11:15:01.746Z,28.4
2023-09-29T11:16:01.608Z,28.2
2023-09-29T11:17:01.532Z,28
2023-09-29T11:18:01.533Z,27.8
2023-09-29T11:19:01.574Z,27.7
2023-09-29T11:20:01.407Z,27.8
2023-09-29T11:21:01.491Z,27.8
2023-09-29T11:22:01.372Z,28.3
2023-09-29T11:23:01.507Z,27.9
2023-09-29T11:24:01.322Z,28.4
2023-09-29T11:25:02.368Z,28.4
2023-09-29T11:26:02.313Z,28.8
2023-09-29T11:27:02.403Z,28.5
2023-09-29T11:28:02.258Z,28.3
2023-09-29T11:29:02.564Z,28.5
2023-09-29T11:30:01.626Z,28.3
2023-09-29T11:32:01.881Z,29
2023-09-29T11:33:01.758Z,28.9
2023-09-29T11:34:02.065Z,29.3
2023-09-29T11:35:02.187Z,29.1
2023-09-29T11:37:01.461Z,28.8
2023-09-29T11:38:01.849Z,28.4
2023-09-29T11:39:01.588Z,28.9
2023-09-29T11:40:01.580Z,29.1
2023-09-29T11:41:01.449Z,29.4
2023-09-29T11:42:01.586Z,29.3
2023-09-29T11:43:01.418Z,28.9
2023-09-29T11:44:01.543Z,29.1
2023-09-29T11:45:01.322Z,29.2
2023-09-29T11:46:02.268Z,29.2
2023-09-29T11:47:01.482Z,28.7
2023-09-29T11:48:02.558Z,29.3
2023-09-29T11:49:01.465Z,29.1
2023-09-29T11:50:01.521Z,29
2023-09-29T11:51:01.366Z,29.3
2023-09-29T11:52:01.566Z,29
2023-09-29T11:53:01.799Z,28.7
2023-09-29T11:54:01.774Z,28.6
2023-09-29T11:55:01.883Z,28.1
2023-09-29T11:56:01.599Z,28.7
2023-09-29T11:57:02.042Z,28.9
2023-09-29T11:58:01.768Z,28.8
2023-09-29T11:59:01.909Z,29
2023-09-29T12:00:02.239Z,28.8
2023-09-29T12:01:02.341Z,28.5
2023-09-29T12:02:02.051Z,28.8
2023-09-29T12:03:01.979Z,28.5
2023-09-29T12:04:02.463Z,28
2023-09-29T12:05:01.678Z,28.4
2023-09-29T12:06:01.870Z,28.5
2023-09-29T12:07:01.804Z,29.4
2023-09-29T12:08:01.797Z,29.7
2023-09-29T12:09:02.086Z,29.5
2023-09-29T12:10:01.892Z,29.1
2023-09-29T12:11:01.897Z,28.9
2023-09-29T12:12:02.648Z,29.4
2023-09-29T12:13:01.602Z,29
2023-09-29T12:14:01.864Z,28.9
2023-09-29T12:15:01.637Z,29.2
2023-09-29T12:16:01.660Z,29.5
2023-09-29T12:17:01.629Z,30.1
2023-09-29T12:18:01.753Z,30.1
2023-09-29T12:19:01.363Z,30.1
2023-09-29T12:20:01.437Z,29.6
2023-09-29T12:21:02.433Z,29.7
2023-09-29T12:22:02.304Z,29.9
2023-09-29T12:23:02.256Z,29.5
2023-09-29T12:24:02.228Z,29.7
2023-09-29T12:25:02.309Z,28.9
2023-09-29T12:26:03.595Z,30.1
2023-09-29T12:27:01.725Z,29.6
2023-09-29T12:28:02.185Z,29.3
2023-09-29T12:29:01.948Z,29
2023-09-29T12:30:02.215Z,29.6
2023-09-29T12:31:02.091Z,29.7
2023-09-29T12:32:02.328Z,29
2023-09-29T12:33:02.262Z,28.6
2023-09-29T12:34:02.258Z,28.6
2023-09-29T12:35:02.254Z,28.2
2023-09-29T12:36:02.122Z,28.1
2023-09-29T12:37:02.188Z,28.6
2023-09-29T12:38:02.118Z,29
2023-09-29T12:39:02.163Z,29.1
2023-09-29T12:40:02.345Z,29.3
2023-09-29T12:41:02.216Z,29.7
2023-09-29T12:42:02.284Z,29.4
2023-09-29T12:43:02.141Z,29.7
2023-09-29T12:44:02.192Z,29.7
2023-09-29T12:45:02.266Z,29.4
2023-09-29T12:46:01.552Z,29.9
2023-09-29T12:47:01.436Z,30
2023-09-29T12:48:01.566Z,29.9
2023-09-29T12:49:01.621Z,29.7
2023-09-29T12:50:01.549Z,30
2023-09-29T12:51:01.574Z,29.6
2023-09-29T12:52:02.819Z,29.3
2023-09-29T12:53:02.053Z,29.8
2023-09-29T12:54:01.934Z,29.9
2023-09-29T12:55:01.902Z,29.7
2023-09-29T12:56:01.904Z,29.5
2023-09-29T12:57:03.603Z,29.8
2023-09-29T12:58:02.104Z,29.9
2023-09-29T12:59:01.976Z,30
2023-09-29T13:00:01.882Z,30.2
2023-09-29T13:01:02.111Z,29.8
2023-09-29T13:02:02.034Z,29.6
2023-09-29T13:03:02.089Z,29.3
2023-09-29T13:04:02.479Z,29.3
2023-09-29T13:05:02.033Z,29.3
2023-09-29T13:06:01.972Z,29.6
2023-09-29T13:07:01.883Z,29.2
2023-09-29T13:08:01.848Z,28.8
2023-09-29T13:09:01.791Z,29
2023-09-29T13:10:01.755Z,29.4
2023-09-29T13:11:01.693Z,29.8
2023-09-29T13:12:01.664Z,29.6
2023-09-29T13:13:01.804Z,29.6
2023-09-29T13:14:01.683Z,29.2
2023-09-29T13:15:01.662Z,29.6
2023-09-29T13:16:01.957Z,29.8
2023-09-29T13:17:01.861Z,29.6
2023-09-29T13:18:01.949Z,29.4
2023-09-29T13:19:01.565Z,29.4
2023-09-29T13:20:01.477Z,28.9
2023-09-29T13:21:01.440Z,29.7
2023-09-29T13:22:01.363Z,29.5
2023-09-29T13:23:01.300Z,29.2
2023-09-29T13:24:01.402Z,29.3
2023-09-29T13:25:02.276Z,29.7